Time;durP1;ratioP1;P1;durP2;ratioP2;P2;SDS_P1;SDS_P2;PMS_P1;PMS_P2;Temp;Humidity;BMP_temperature;BMP_pressure;BME280_temperature;BME280_humidity;BME280_pressure;Samples;Min_cycle;Max_cycle;Signal;HPM_P1;HPM_P2
2021/07/27 00:01:07;;;;;;;9.33;8.43;;;21.30;1.00;;;;;;5051167;28;20455;-76
2021/07/27 00:03:33;;;;;;;8.03;7.40;;;21.20;1.00;;;;;;5051187;28;21290;-76
2021/07/27 00:06:00;;;;;;;10.10;9.20;;;21.20;1.00;;;;;;5048259;28;21178;-76
2021/07/27 00:08:26;;;;;;;8.87;8.17;;;21.20;1.00;;;;;;5047615;28;20496;-76
2021/07/27 00:10:55;;;;;;;8.97;8.27;;;21.10;1.00;;;;;;5048466;28;20566;-76
2021/07/27 00:13:21;;;;;;;8.50;7.80;;;21.10;1.00;;;;;;5037133;28;20462;-76
2021/07/27 00:15:48;;;;;;;10.00;9.00;;;21.10;1.00;;;;;;5047933;28;21062;-75
2021/07/27 00:18:15;;;;;;;10.17;9.17;;;21.10;1.00;;;;;;5050281;28;21043;-76
2021/07/27 00:20:41;;;;;;;8.90;8.20;;;21.10;1.00;;;;;;5045935;28;20527;-76
2021/07/27 00:23:08;;;;;;;9.00;8.20;;;21.10;1.00;;;;;;5048501;28;20484;-76
2021/07/27 00:25:35;;;;;;;10.23;9.33;;;21.10;1.00;;;;;;5046089;28;20957;-76
2021/07/27 00:28:03;;;;;;;9.33;8.37;;;21.00;1.00;;;;;;5048381;28;20472;-76
2021/07/27 00:30:29;;;;;;;9.73;8.87;;;21.00;1.00;;;;;;5047729;28;20944;-76
2021/07/27 00:32:56;;;;;;;9.80;8.90;;;21.00;1.00;;;;;;5049013;28;20452;-76
2021/07/27 00:35:24;;;;;;;9.13;8.33;;;21.00;1.00;;;;;;5050707;28;20972;-76
2021/07/27 00:38:07;;;;;;;10.03;9.17;;;21.00;1.00;;;;;;5046511;28;20454;-76
2021/07/27 00:40:34;;;;;;;10.53;8.33;;;21.00;1.00;;;;;;5063063;28;21023;-76
2021/07/27 00:43:05;;;;;;;9.90;8.93;;;20.90;1.00;;;;;;5049782;28;20480;-76
2021/07/27 00:45:32;;;;;;;18.93;9.13;;;20.90;1.00;;;;;;5064936;28;20542;-76
2021/07/27 00:48:00;;;;;;;10.10;9.20;;;20.80;1.00;;;;;;5063624;28;20457;-76
2021/07/27 00:50:27;;;;;;;10.20;9.27;;;20.80;1.00;;;;;;5057190;28;20968;-76
2021/07/27 00:52:56;;;;;;;9.63;8.73;;;20.80;1.00;;;;;;5043547;28;20453;-76
2021/07/27 00:55:23;;;;;;;10.37;9.37;;;20.80;1.00;;;;;;5042488;28;20450;-76
2021/07/27 00:57:49;;;;;;;9.00;8.10;;;20.80;1.00;;;;;;5049044;28;20454;-76
2021/07/27 01:00:18;;;;;;;10.50;9.60;;;20.80;1.00;;;;;;5050265;28;20461;-76
2021/07/27 01:02:44;;;;;;;9.70;8.80;;;20.80;1.00;;;;;;5047037;28;20484;-76
2021/07/27 01:05:12;;;;;;;9.80;8.57;;;20.80;1.00;;;;;;5048986;28;20443;-76
2021/07/27 01:07:39;;;;;;;9.80;8.80;;;20.80;1.00;;;;;;5046464;28;21478;-76
2021/07/27 01:10:07;;;;;;;9.50;8.80;;;20.80;1.00;;;;;;5046434;28;20480;-76
2021/07/27 01:12:34;;;;;;;9.50;8.70;;;20.80;1.00;;;;;;5043936;28;20477;-76
2021/07/27 01:15:01;;;;;;;10.10;9.20;;;20.80;1.00;;;;;;5042228;28;20462;-77
2021/07/27 01:17:29;;;;;;;8.90;8.10;;;20.80;1.00;;;;;;5045151;28;20474;-77
2021/07/27 01:19:59;;;;;;;9.67;8.77;;;20.80;1.00;;;;;;5041880;28;21788;-77
2021/07/27 01:39:07;;;;;;;11.27;10.30;;;20.70;1.00;;;;;;5037256;28;20664;-77
2021/07/27 01:44:18;;;;;;;10.50;9.50;;;20.70;1.00;;;;;;5038692;28;20471;-76
2021/07/27 01:46:50;;;;;;;11.27;10.27;;;20.70;1.00;;;;;;5044782;28;20404;-77
2021/07/27 01:49:17;;;;;;;11.43;10.23;;;20.70;1.00;;;;;;5039725;28;20465;-76
2021/07/27 01:51:45;;;;;;;11.17;10.07;;;20.60;1.00;;;;;;5042075;28;20933;-77
2021/07/27 01:54:15;;;;;;;11.63;10.53;;;20.60;1.00;;;;;;5050732;28;20558;-77
2021/07/27 01:56:44;;;;;;;11.00;10.03;;;20.60;1.00;;;;;;5039986;28;20601;-76
2021/07/27 01:59:11;;;;;;;10.60;9.70;;;20.60;1.00;;;;;;5040624;28;20480;-76
2021/07/27 02:01:39;;;;;;;11.10;10.10;;;20.60;1.00;;;;;;5037578;28;20574;-76
2021/07/27 02:04:06;;;;;;;11.60;10.57;;;20.60;1.00;;;;;;5035185;28;21263;-76
2021/07/27 02:06:32;;;;;;;11.73;10.30;;;20.70;1.00;;;;;;5036118;28;20962;-76
2021/07/27 02:09:04;;;;;;;11.27;10.20;;;20.70;1.00;;;;;;5034361;28;21063;-76
2021/07/27 02:11:39;;;;;;;11.23;10.23;;;20.70;1.00;;;;;;5032038;28;21008;-76
2021/07/27 02:14:05;;;;;;;12.40;11.10;;;20.60;1.00;;;;;;5027195;28;21077;-76
2021/07/27 02:16:36;;;;;;;11.30;10.00;;;20.70;1.00;;;;;;5034630;28;20460;-77
2021/07/27 02:19:02;;;;;;;10.60;9.60;;;20.70;1.00;;;;;;5034234;28;20464;-77
2021/07/27 02:21:29;;;;;;;11.13;10.17;;;20.70;1.00;;;;;;5038682;28;21342;-77
2021/07/27 02:23:55;;;;;;;10.90;10.00;;;20.70;1.00;;;;;;5046805;28;20551;-77
2021/07/27 02:26:22;;;;;;;12.20;11.13;;;20.70;1.00;;;;;;5036225;28;20479;-77
2021/07/27 02:28:50;;;;;;;12.00;10.60;;;20.70;1.00;;;;;;5039884;28;20459;-76
2021/07/27 02:31:22;;;;;;;10.90;10.00;;;20.80;1.00;;;;;;5038104;28;20460;-77
2021/07/27 02:33:48;;;;;;;10.10;9.20;;;20.80;1.00;;;;;;5044422;28;20492;-76
2021/07/27 02:36:15;;;;;;;10.60;9.53;;;20.80;1.00;;;;;;5043417;28;22806;-77
2021/07/27 02:38:41;;;;;;;9.83;8.93;;;20.80;1.00;;;;;;5045156;28;21103;-77
2021/07/27 02:41:08;;;;;;;10.70;9.60;;;20.90;1.00;;;;;;5043489;28;20443;-77
2021/07/27 02:43:34;;;;;;;11.70;10.70;;;20.90;1.00;;;;;;5044690;28;20488;-77
2021/07/27 02:46:02;;;;;;;10.53;9.40;;;20.90;1.00;;;;;;5040975;28;20470;-77
2021/07/27 02:48:29;;;;;;;11.30;10.30;;;20.90;1.00;;;;;;5042460;28;20508;-77
2021/07/27 02:51:03;;;;;;;10.93;9.93;;;20.90;1.00;;;;;;5045843;28;20540;-77
2021/07/27 02:53:30;;;;;;;11.30;10.30;;;20.80;1.00;;;;;;5040908;28;20472;-77
2021/07/27 02:55:59;;;;;;;11.27;10.17;;;20.80;1.00;;;;;;5050351;28;20409;-77
2021/07/27 02:58:37;;;;;;;11.50;9.67;;;20.80;1.00;;;;;;5055737;28;20468;-75
2021/07/27 03:01:06;;;;;;;15.97;14.67;;;20.80;1.00;;;;;;5066335;28;20556;-76
2021/07/27 03:03:33;;;;;;;10.93;9.93;;;20.80;1.00;;;;;;5069100;28;20472;-76
2021/07/27 03:06:01;;;;;;;11.60;10.07;;;20.80;1.00;;;;;;5061930;28;20477;-76
2021/07/27 03:08:47;;;;;;;10.97;10.00;;;20.70;1.00;;;;;;5068815;28;24539;-76
2021/07/27 03:11:17;;;;;;;10.77;9.77;;;20.60;1.00;;;;;;5074184;28;20424;-76
2021/07/27 03:13:44;;;;;;;11.30;10.37;;;20.60;1.00;;;;;;5075602;28;20437;-76
2021/07/27 03:16:17;;;;;;;11.07;10.00;;;20.60;1.00;;;;;;5065687;28;20425;-76
2021/07/27 03:18:43;;;;;;;10.80;9.80;;;20.50;1.00;;;;;;5067519;28;20437;-76
2021/07/27 03:21:10;;;;;;;10.83;9.83;;;20.50;1.00;;;;;;5068792;28;20975;-75
2021/07/27 03:23:37;;;;;;;11.00;10.00;;;20.50;1.00;;;;;;5062916;28;20496;-76
2021/07/27 03:26:03;;;;;;;11.80;10.70;;;20.50;1.00;;;;;;5067396;28;20453;-75
2021/07/27 03:28:30;;;;;;;11.63;10.40;;;20.40;1.00;;;;;;5076845;28;20471;-76
2021/07/27 03:30:56;;;;;;;12.50;11.10;;;20.40;1.00;;;;;;5066666;28;20555;-74
2021/07/27 03:33:24;;;;;;;11.60;10.60;;;20.40;1.00;;;;;;5077353;28;20409;-75
2021/07/27 03:35:51;;;;;;;11.70;10.60;;;20.40;1.00;;;;;;5072807;28;20410;-76
2021/07/27 03:38:18;;;;;;;11.63;10.63;;;20.40;1.00;;;;;;5075712;28;20453;-76
2021/07/27 03:40:44;;;;;;;11.70;10.60;;;20.40;1.00;;;;;;5068872;28;20627;-76
2021/07/27 03:43:11;;;;;;;13.00;11.70;;;20.40;1.00;;;;;;5075787;28;20417;-74
2021/07/27 03:45:37;;;;;;;12.10;11.10;;;20.40;1.00;;;;;;5073682;28;20455;-76
2021/07/27 03:48:04;;;;;;;12.00;10.67;;;20.30;1.00;;;;;;5079870;28;20875;-77
2021/07/27 03:50:32;;;;;;;11.67;10.60;;;20.30;1.00;;;;;;5074418;28;20429;-76
2021/07/27 03:52:59;;;;;;;12.60;11.30;;;20.30;1.00;;;;;;5076758;28;20402;-76
2021/07/27 03:55:26;;;;;;;12.50;10.60;;;20.30;1.00;;;;;;5078927;28;20407;-76
2021/07/27 03:57:52;;;;;;;16.13;14.70;;;20.40;1.00;;;;;;5076336;27;20417;-75
2021/07/27 04:00:19;;;;;;;11.53;10.50;;;20.40;1.00;;;;;;5076513;28;20406;-75
2021/07/27 04:02:46;;;;;;;12.27;11.17;;;20.40;1.00;;;;;;5075940;27;20464;-75
2021/07/27 04:05:13;;;;;;;11.83;10.93;;;20.50;1.00;;;;;;5075204;28;20451;-76
2021/07/27 04:07:41;;;;;;;11.23;10.23;;;20.50;1.00;;;;;;5076285;28;20468;-76
2021/07/27 04:10:09;;;;;;;12.50;11.30;;;20.50;1.00;;;;;;5076118;27;22137;-74
2021/07/27 04:12:36;;;;;;;12.37;11.10;;;20.50;1.00;;;;;;5071917;27;20419;-75
2021/07/27 04:15:03;;;;;;;13.40;11.97;;;20.50;1.00;;;;;;5074290;28;20437;-75
2021/07/27 04:17:30;;;;;;;11.17;9.90;;;20.60;1.00;;;;;;5075629;28;20437;-76
2021/07/27 04:19:57;;;;;;;13.87;12.60;;;20.60;1.00;;;;;;5076835;27;20440;-75
2021/07/27 04:22:24;;;;;;;11.57;10.43;;;20.60;1.00;;;;;;5075734;28;20480;-77
2021/07/27 04:24:52;;;;;;;12.17;11.03;;;20.60;1.00;;;;;;5077770;28;20466;-77
2021/07/27 04:27:20;;;;;;;11.70;10.60;;;20.60;1.00;;;;;;5081193;27;20490;-76
2021/07/27 04:29:46;;;;;;;11.80;10.80;;;20.60;1.00;;;;;;5085125;28;20402;-77
2021/07/27 04:32:13;;;;;;;12.83;11.60;;;20.70;1.00;;;;;;5085300;28;20481;-76
2021/07/27 04:34:40;;;;;;;11.70;10.60;;;20.60;1.00;;;;;;5086726;27;20447;-77
2021/07/27 04:37:07;;;;;;;11.67;10.57;;;20.70;1.00;;;;;;5089112;28;20551;-77
2021/07/27 04:39:34;;;;;;;11.53;10.37;;;20.70;1.00;;;;;;5092554;28;20449;-76
2021/07/27 04:42:02;;;;;;;11.60;10.40;;;20.80;1.00;;;;;;5089891;28;20402;-77
2021/07/27 04:44:29;;;;;;;11.23;10.23;;;20.80;1.00;;;;;;5091981;28;20437;-76
2021/07/27 04:46:56;;;;;;;12.43;10.70;;;20.80;1.00;;;;;;5076398;28;22846;-76
2021/07/27 04:49:22;;;;;;;12.40;11.20;;;20.80;1.00;;;;;;5087036;28;20486;-77
2021/07/27 04:51:49;;;;;;;13.10;11.33;;;20.80;1.00;;;;;;5086651;28;20431;-77
2021/07/27 04:54:26;;;;;;;11.27;10.27;;;20.80;1.00;;;;;;5091477;28;20410;-76
2021/07/27 04:56:53;;;;;;;11.90;10.70;;;20.90;1.00;;;;;;5087465;28;20455;-76
2021/07/27 04:59:21;;;;;;;12.93;10.27;;;20.90;1.00;;;;;;5083609;28;20421;-76
2021/07/27 05:01:47;;;;;;;10.87;9.97;;;20.90;1.00;;;;;;5087106;28;21016;-75
2021/07/27 05:04:14;;;;;;;11.80;10.70;;;20.90;1.00;;;;;;5086369;28;20433;-77
2021/07/27 05:06:40;;;;;;;11.23;10.10;;;20.90;1.00;;;;;;5083253;28;20480;-77
2021/07/27 05:09:07;;;;;;;10.90;9.80;;;21.00;1.00;;;;;;5085479;28;20409;-75
2021/07/27 05:11:34;;;;;;;10.33;9.30;;;21.00;1.00;;;;;;5086069;27;20483;-75
2021/07/27 05:14:00;;;;;;;10.33;9.33;;;21.00;1.00;;;;;;5080217;28;21229;-76
2021/07/27 05:16:28;;;;;;;10.20;9.20;;;21.10;1.00;;;;;;5081599;27;20445;-75
2021/07/27 05:19:22;;;;;;;11.40;10.40;;;21.20;1.00;;;;;;5069905;28;20403;-75
2021/07/27 05:21:52;;;;;;;14.90;10.50;;;21.20;1.00;;;;;;5070764;28;20568;-75
2021/07/27 05:24:19;;;;;;;10.67;9.67;;;21.30;1.00;;;;;;5075707;28;20458;-76
2021/07/27 05:26:46;;;;;;;10.63;9.63;;;21.30;1.00;;;;;;5076916;28;20417;-76
2021/07/27 05:29:12;;;;;;;9.90;8.87;;;21.40;1.00;;;;;;5078211;28;20407;-76
2021/07/27 05:31:40;;;;;;;8.73;8.03;;;21.50;1.00;;;;;;5077755;28;20433;-76
2021/07/27 05:34:08;;;;;;;9.83;8.80;;;21.50;1.00;;;;;;5079374;28;20421;-76
2021/07/27 05:36:35;;;;;;;11.10;10.00;;;21.60;1.00;;;;;;5079802;27;20461;-77
2021/07/27 05:39:03;;;;;;;10.23;9.23;;;21.70;1.00;;;;;;5082062;28;20446;-74
2021/07/27 05:41:29;;;;;;;12.40;9.03;;;21.80;1.00;;;;;;5079152;28;20439;-80
2021/07/27 05:43:56;;;;;;;9.63;8.83;;;21.90;1.00;;;;;;5079365;28;20418;-78
2021/07/27 05:46:22;;;;;;;9.90;9.00;;;22.00;1.00;;;;;;5079416;28;20518;-78
2021/07/27 05:48:53;;;;;;;8.97;8.17;;;22.00;1.00;;;;;;5081420;28;20469;-80
2021/07/27 05:51:20;;;;;;;9.80;8.90;;;22.10;1.00;;;;;;5082726;28;20449;-79
2021/07/27 05:53:47;;;;;;;10.20;9.10;;;22.20;1.00;;;;;;5074100;28;20452;-78
2021/07/27 05:56:14;;;;;;;9.70;8.40;;;22.20;1.00;;;;;;5074285;28;20415;-83
2021/07/27 05:58:41;;;;;;;9.77;8.00;;;22.30;1.00;;;;;;5054141;28;20424;-81
2021/07/27 06:01:08;;;;;;;8.93;8.00;;;22.40;1.00;;;;;;5055624;28;20487;-90
2021/07/27 06:03:34;;;;;;;9.63;8.67;;;22.50;1.00;;;;;;5053153;28;20501;-76
2021/07/27 06:06:02;;;;;;;9.00;7.80;;;22.60;1.00;;;;;;5056945;28;20444;-83
2021/07/27 06:08:29;;;;;;;8.90;8.10;;;22.60;1.00;;;;;;5063246;28;20478;-83
2021/07/27 06:10:56;;;;;;;9.23;7.20;;;22.70;1.00;;;;;;5064861;28;21846;-84
2021/07/27 06:13:23;;;;;;;9.30;8.37;;;22.70;1.00;;;;;;5053111;28;21518;-85
2021/07/27 06:15:50;;;;;;;8.43;7.53;;;22.70;1.00;;;;;;5055306;28;20471;-84
2021/07/27 06:18:17;;;;;;;10.17;8.20;;;22.80;1.00;;;;;;5055966;28;20539;-85
2021/07/27 06:20:43;;;;;;;9.33;8.53;;;22.90;1.00;;;;;;5060869;28;20439;-82
2021/07/27 06:23:11;;;;;;;9.23;7.73;;;22.90;1.00;;;;;;5051860;28;20464;-81
2021/07/27 06:25:38;;;;;;;9.70;8.83;;;23.00;1.00;;;;;;5055056;28;21377;-82
2021/07/27 06:28:06;;;;;;;8.70;7.90;;;23.10;1.00;;;;;;5051994;28;20460;-78
2021/07/27 06:30:32;;;;;;;8.50;7.00;;;23.20;1.00;;;;;;5064276;28;20431;-77
2021/07/27 06:32:59;;;;;;;8.77;7.97;;;23.20;1.00;;;;;;5064249;28;20465;-78
2021/07/27 06:35:26;;;;;;;8.30;7.50;;;23.30;1.00;;;;;;5060001;28;20452;-77
2021/07/27 06:37:53;;;;;;;7.00;6.30;;;23.40;1.00;;;;;;5067437;28;20417;-78
2021/07/27 06:40:22;;;;;;;7.10;6.50;;;23.40;1.00;;;;;;5068193;28;20488;-77
2021/07/27 06:42:48;;;;;;;11.97;10.73;;;23.40;1.00;;;;;;5077444;28;20449;-78
2021/07/27 06:45:15;;;;;;;8.20;7.50;;;23.50;1.00;;;;;;5071070;28;20479;-78
2021/07/27 06:47:42;;;;;;;8.13;7.33;;;23.70;1.00;;;;;;5066042;28;20497;-78
2021/07/27 06:50:09;;;;;;;9.87;7.47;;;23.70;1.00;;;;;;5066010;28;20759;-78
2021/07/27 06:52:36;;;;;;;7.10;6.40;;;23.80;1.00;;;;;;5065912;28;20459;-78
2021/07/27 06:55:03;;;;;;;6.33;5.73;;;23.80;1.00;;;;;;5063229;28;21481;-78
2021/07/27 06:57:31;;;;;;;6.30;5.70;;;23.90;1.00;;;;;;5066026;28;20453;-78
2021/07/27 06:59:57;;;;;;;6.63;6.03;;;23.90;1.00;;;;;;5077949;28;20402;-78
2021/07/27 07:02:27;;;;;;;6.60;6.00;;;24.00;1.00;;;;;;5086328;28;20482;-78
2021/07/27 07:04:54;;;;;;;5.87;5.37;;;24.00;1.00;;;;;;5080196;28;20463;-80
2021/07/27 07:07:21;;;;;;;6.30;5.70;;;24.20;1.00;;;;;;5081085;28;20462;-76
2021/07/27 07:09:48;;;;;;;6.10;5.60;;;24.20;1.00;;;;;;5086312;28;20447;-77
2021/07/27 07:12:15;;;;;;;6.70;6.10;;;24.30;1.00;;;;;;5082430;28;20539;-78
2021/07/27 07:14:44;;;;;;;9.47;6.50;;;24.30;1.00;;;;;;5079767;28;20455;-77
2021/07/27 07:17:11;;;;;;;5.80;5.30;;;24.50;1.00;;;;;;5085484;27;20415;-78
2021/07/27 07:19:39;;;;;;;6.30;5.17;;;24.50;1.00;;;;;;5085419;28;20402;-77
2021/07/27 07:22:06;;;;;;;5.30;4.80;;;24.60;1.00;;;;;;5080839;28;20841;-78
2021/07/27 07:24:33;;;;;;;6.20;5.40;;;24.60;1.00;;;;;;5082922;28;20530;-78
2021/07/27 07:26:59;;;;;;;8.13;5.47;;;24.60;1.00;;;;;;5081256;28;20472;-77
2021/07/27 07:29:26;;;;;;;5.60;5.10;;;24.70;1.00;;;;;;5078942;27;20453;-78
2021/07/27 07:31:54;;;;;;;8.37;5.97;;;24.70;1.00;;;;;;5074816;28;20419;-78
2021/07/27 07:34:26;;;;;;;5.27;4.87;;;24.80;1.00;;;;;;5079163;28;20448;-78
2021/07/27 07:36:53;;;;;;;5.13;4.63;;;24.90;1.00;;;;;;5078568;28;20404;-77
2021/07/27 07:39:22;;;;;;;4.83;4.33;;;24.90;1.00;;;;;;5078195;28;20450;-77
2021/07/27 07:41:49;;;;;;;5.43;4.93;;;24.90;1.00;;;;;;5082943;28;20880;-79
2021/07/27 07:44:16;;;;;;;4.60;4.20;;;25.10;1.00;;;;;;5081749;28;20460;-79
2021/07/27 07:46:43;;;;;;;5.80;5.20;;;25.10;1.00;;;;;;5081410;28;20494;-79
2021/07/27 07:49:11;;;;;;;5.20;4.70;;;25.20;1.00;;;;;;5081798;28;20429;-78
2021/07/27 07:51:44;;;;;;;5.17;4.77;;;25.30;1.00;;;;;;5073888;28;20466;-79
2021/07/27 07:54:11;;;;;;;4.90;4.50;;;25.40;1.00;;;;;;5079696;28;20596;-79
2021/07/27 07:56:37;;;;;;;5.80;5.20;;;25.50;1.00;;;;;;5076771;28;20437;-78
2021/07/27 07:59:04;;;;;;;4.73;4.30;;;25.50;1.00;;;;;;5082960;28;20447;-78
2021/07/27 08:01:31;;;;;;;4.40;4.00;;;25.50;1.00;;;;;;5082184;28;20443;-78
2021/07/27 08:04:00;;;;;;;5.57;4.70;;;25.60;1.00;;;;;;5077744;28;20448;-77
2021/07/27 08:06:29;;;;;;;4.70;3.93;;;25.70;1.00;;;;;;5075415;28;20415;-77
2021/07/27 08:08:56;;;;;;;5.47;4.77;;;25.80;1.00;;;;;;5077825;27;20425;-76
2021/07/27 08:11:23;;;;;;;4.43;4.03;;;25.90;1.00;;;;;;5084039;28;20489;-80
2021/07/27 08:13:52;;;;;;;4.20;3.80;;;26.00;1.00;;;;;;5087472;28;20462;-79
2021/07/27 08:16:18;;;;;;;5.17;4.63;;;26.20;1.00;;;;;;5089836;28;20405;-77
2021/07/27 08:18:45;;;;;;;4.70;4.30;;;26.30;1.00;;;;;;5084257;27;20416;-80
2021/07/27 08:21:12;;;;;;;7.30;4.67;;;26.30;1.00;;;;;;5074950;28;20418;-79
2021/07/27 08:23:44;;;;;;;4.90;4.50;;;26.50;1.00;;;;;;5076941;28;20555;-78
2021/07/27 08:26:11;;;;;;;6.33;4.73;;;26.60;1.00;;;;;;5077053;28;20447;-78
2021/07/27 08:28:38;;;;;;;4.73;4.30;;;26.80;1.00;;;;;;5082344;28;20426;-78
2021/07/27 08:31:04;;;;;;;4.60;4.20;;;26.90;1.00;;;;;;5074341;28;20465;-78
2021/07/27 08:33:33;;;;;;;4.87;4.20;;;26.80;1.00;;;;;;5077642;28;20446;-76
2021/07/27 08:36:00;;;;;;;7.97;4.77;;;26.80;1.00;;;;;;5076048;28;20427;-77
2021/07/27 08:38:26;;;;;;;7.57;6.87;;;26.80;1.00;;;;;;5079169;28;20420;-77
2021/07/27 08:40:57;;;;;;;5.20;4.77;;;26.80;1.00;;;;;;5075237;28;20408;-78
2021/07/27 08:43:25;;;;;;;5.30;4.50;;;26.90;1.00;;;;;;5073822;28;20407;-78
2021/07/27 08:45:52;;;;;;;5.60;4.73;;;27.00;1.00;;;;;;5072841;28;20457;-78
2021/07/27 08:48:18;;;;;;;4.67;4.27;;;27.10;1.00;;;;;;5078918;28;20453;-77
2021/07/27 08:50:46;;;;;;;5.23;4.80;;;27.10;1.00;;;;;;5080896;28;20515;-78
2021/07/27 08:53:13;;;;;;;5.33;4.83;;;27.20;1.00;;;;;;5074025;28;20429;-78
2021/07/27 08:55:39;;;;;;;5.03;4.60;;;27.20;1.00;;;;;;5077435;28;20521;-83
2021/07/27 08:58:07;;;;;;;4.50;4.10;;;27.30;1.00;;;;;;5075888;28;20459;-83
2021/07/27 09:00:34;;;;;;;4.57;4.17;;;27.40;1.00;;;;;;5076485;28;20406;-83
2021/07/27 09:03:08;;;;;;;4.87;4.47;;;27.40;1.00;;;;;;5072377;28;20472;-83
2021/07/27 09:05:35;;;;;;;5.03;4.50;;;27.60;1.00;;;;;;5078951;28;20544;-83
2021/07/27 09:08:02;;;;;;;5.13;4.67;;;27.60;1.00;;;;;;5079887;28;20438;-78
2021/07/27 09:10:29;;;;;;;4.90;4.40;;;27.80;1.00;;;;;;5070626;28;20502;-79
2021/07/27 09:12:58;;;;;;;4.53;3.80;;;28.00;1.00;;;;;;5070194;28;20538;-77
2021/07/27 09:15:28;;;;;;;5.40;3.70;;;28.10;1.00;;;;;;5074710;28;20449;-77
2021/07/27 09:17:55;;;;;;;4.27;3.87;;;28.30;1.00;;;;;;5077249;28;20445;-77
2021/07/27 09:20:30;;;;;;;3.73;3.33;;;28.40;1.00;;;;;;5072543;28;20467;-77
2021/07/27 09:22:57;;;;;;;4.10;3.70;;;28.60;1.00;;;;;;5066562;28;20523;-77
2021/07/27 09:25:26;;;;;;;3.53;3.23;;;28.90;1.00;;;;;;5054703;28;20496;-79
2021/07/27 09:28:03;;;;;;;5.73;4.00;;;29.00;1.00;;;;;;5055197;28;20458;-79
2021/07/27 09:30:32;;;;;;;5.03;4.07;;;29.00;1.00;;;;;;5051670;28;20518;-80
2021/07/27 09:32:59;;;;;;;8.17;4.77;;;29.00;1.00;;;;;;5052587;28;20505;-78
2021/07/27 09:35:27;;;;;;;5.30;4.50;;;29.00;1.00;;;;;;5053015;28;20543;-78
2021/07/27 09:38:11;;;;;;;4.83;4.23;;;29.20;1.00;;;;;;5055163;28;20530;-77
2021/07/27 09:40:50;;;;;;;5.70;4.40;;;29.30;1.00;;;;;;5056706;28;20451;-79
2021/07/27 09:43:19;;;;;;;4.70;4.30;;;29.80;1.00;;;;;;5062337;28;20509;-79
2021/07/27 09:45:49;;;;;;;5.50;3.97;;;30.40;1.00;;;;;;5053185;28;20453;-78
2021/07/27 09:48:16;;;;;;;4.80;3.80;;;31.50;1.00;;;;;;5059680;28;20415;-78
2021/07/27 09:50:45;;;;;;;4.80;3.80;;;32.40;1.00;;;;;;5063233;28;20497;-85
2021/07/27 09:53:11;;;;;;;4.83;4.37;;;32.10;1.00;;;;;;5059830;28;20449;-80
2021/07/27 09:55:38;;;;;;;4.17;3.77;;;31.40;1.00;;;;;;5054534;28;21344;-79
2021/07/27 09:58:05;;;;;;;5.10;4.60;;;30.90;1.00;;;;;;5052457;28;20540;-79
2021/07/27 10:00:34;;;;;;;4.70;4.30;;;30.20;1.00;;;;;;5057074;28;20457;-80
2021/07/27 10:03:05;;;;;;;4.43;4.03;;;30.60;1.00;;;;;;5052205;28;20471;-79
2021/07/27 10:05:33;;;;;;;4.50;4.10;;;30.30;1.00;;;;;;5067885;28;21527;-79
2021/07/27 10:08:00;;;;;;;5.33;4.40;;;30.10;1.00;;;;;;5061305;28;22048;-80
2021/07/27 10:10:40;;;;;;;4.73;4.07;;;29.70;1.00;;;;;;5060931;28;20459;-80
2021/07/27 10:13:09;;;;;;;4.50;4.10;;;29.50;1.00;;;;;;5057232;28;20463;-81
2021/07/27 10:15:44;;;;;;;6.37;4.43;;;29.90;1.00;;;;;;5068849;28;20462;-80
2021/07/27 10:18:13;;;;;;;4.80;4.33;;;31.60;1.00;;;;;;5058283;28;20413;-80
2021/07/27 10:20:40;;;;;;;4.63;4.23;;;32.30;1.00;;;;;;5057078;28;20510;-79
2021/07/27 10:23:15;;;;;;;4.93;4.53;;;32.00;1.00;;;;;;5059882;28;20474;-79
2021/07/27 10:26:10;;;;;;;4.87;4.47;;;32.60;1.00;;;;;;5056738;28;20455;-79
2021/07/27 10:28:37;;;;;;;5.60;4.40;;;34.00;1.00;;;;;;5051053;28;20452;-79
2021/07/27 10:31:08;;;;;;;5.10;4.63;;;35.30;1.00;;;;;;5055680;28;21779;-80
2021/07/27 10:33:37;;;;;;;6.77;5.00;;;36.10;1.00;;;;;;5053830;28;20470;-78
2021/07/27 10:36:04;;;;;;;4.73;4.33;;;35.10;1.00;;;;;;5057089;28;20502;-79
2021/07/27 10:38:41;;;;;;;4.87;4.17;;;33.60;1.00;;;;;;5055409;28;20546;-79
2021/07/27 10:41:19;;;;;;;5.53;4.17;;;32.20;1.00;;;;;;5057703;28;20984;-79
2021/07/27 10:43:46;;;;;;;6.00;5.07;;;31.20;1.00;;;;;;5057994;28;20459;-79
2021/07/27 10:46:13;;;;;;;4.30;3.90;;;31.00;1.00;;;;;;5058415;28;20646;-79
2021/07/27 10:48:41;;;;;;;5.63;4.30;;;31.70;1.00;;;;;;5054850;28;20461;-78
2021/07/27 10:51:09;;;;;;;5.17;4.50;;;33.50;1.00;;;;;;5054106;28;20435;-80
2021/07/27 10:53:36;;;;;;;4.17;3.70;;;35.40;1.00;;;;;;5060688;28;21221;-78
2021/07/27 10:56:04;;;;;;;4.10;3.80;;;36.40;1.00;;;;;;5054823;28;20699;-79
2021/07/27 10:58:32;;;;;;;4.50;4.10;;;37.00;1.00;;;;;;5058490;28;20463;-79
2021/07/27 11:01:09;;;;;;;4.00;3.60;;;37.70;1.00;;;;;;5055616;28;20444;-79
2021/07/27 11:03:36;;;;;;;4.27;3.57;;;38.00;1.00;;;;;;5059021;28;20502;-78
2021/07/27 11:06:05;;;;;;;7.30;6.70;;;38.10;1.00;;;;;;5059301;28;20450;-81
2021/07/27 11:08:33;;;;;;;4.33;3.93;;;38.70;1.00;;;;;;5065664;28;20496;-83
2021/07/27 11:11:07;;;;;;;3.80;3.50;;;39.30;1.00;;;;;;5061173;28;20400;-82
2021/07/27 11:13:34;;;;;;;5.10;4.17;;;39.60;1.00;;;;;;5061461;28;20471;-80
2021/07/27 11:16:01;;;;;;;4.10;3.70;;;38.60;1.00;;;;;;5057514;28;20546;-79
2021/07/27 11:18:37;;;;;;;3.43;3.13;;;37.20;1.00;;;;;;5063086;28;20555;-82
2021/07/27 11:21:10;;;;;;;4.33;3.57;;;36.60;1.00;;;;;;5056438;28;20448;-80
2021/07/27 11:23:38;;;;;;;3.50;3.20;;;36.30;1.00;;;;;;5060979;28;20505;-79
2021/07/27 11:26:05;;;;;;;3.67;3.23;;;36.50;1.00;;;;;;5067468;28;20395;-79
2021/07/27 11:28:36;;;;;;;4.17;3.77;;;37.50;1.00;;;;;;5057746;28;20615;-80
2021/07/27 11:31:04;;;;;;;3.70;3.10;;;37.60;1.00;;;;;;5054124;28;20405;-79
2021/07/27 11:33:33;;;;;;;3.50;3.20;;;38.30;1.00;;;;;;5056991;28;22424;-80
2021/07/27 11:36:00;;;;;;;4.13;3.57;;;38.90;1.00;;;;;;5052937;28;20559;-79
2021/07/27 11:38:31;;;;;;;4.00;3.60;;;39.20;1.00;;;;;;5051861;28;20448;-78
2021/07/27 11:41:05;;;;;;;3.20;3.00;;;38.50;1.00;;;;;;5055870;28;20455;-79
2021/07/27 11:43:33;;;;;;;6.10;5.60;;;37.30;1.00;;;;;;5057310;28;20474;-80
2021/07/27 11:46:08;;;;;;;4.50;3.53;;;36.60;1.00;;;;;;5059306;28;20439;-80
2021/07/27 11:48:35;;;;;;;4.83;4.43;;;36.60;1.00;;;;;;5053460;28;20925;-78
2021/07/27 11:51:03;;;;;;;3.63;3.27;;;35.70;1.00;;;;;;5056561;28;20439;-80
2021/07/27 11:53:36;;;;;;;4.63;4.30;;;35.10;1.00;;;;;;5063410;28;20571;-79
2021/07/27 11:56:10;;;;;;;4.17;3.60;;;35.50;1.00;;;;;;5061450;28;21276;-80
2021/07/27 11:58:37;;;;;;;4.43;3.63;;;35.60;1.00;;;;;;5062183;28;20442;-80
2021/07/27 12:01:04;;;;;;;5.33;3.70;;;34.90;1.00;;;;;;5051212;28;20461;-79
2021/07/27 12:03:30;;;;;;;4.47;3.30;;;34.20;1.00;;;;;;5057926;28;20464;-79
2021/07/27 12:05:57;;;;;;;3.83;3.50;;;34.80;1.00;;;;;;5059968;28;20492;-79
2021/07/27 12:08:25;;;;;;;4.03;3.63;;;36.30;1.00;;;;;;5057452;28;20467;-79
2021/07/27 12:10:52;;;;;;;4.53;3.87;;;36.90;1.00;;;;;;5056124;28;20452;-80
2021/07/27 12:13:19;;;;;;;7.97;3.90;;;36.40;1.00;;;;;;5050616;28;20455;-78
2021/07/27 12:15:46;;;;;;;3.73;3.43;;;36.20;1.00;;;;;;5050529;28;20439;-78
2021/07/27 12:18:13;;;;;;;3.87;3.47;;;35.30;1.00;;;;;;5052922;28;20439;-79
2021/07/27 12:20:39;;;;;;;5.23;3.47;;;33.70;1.00;;;;;;5054030;28;20459;-79
2021/07/27 12:23:06;;;;;;;4.17;3.40;;;34.00;1.00;;;;;;5051522;28;20466;-79
2021/07/27 12:25:34;;;;;;;3.80;3.40;;;34.30;1.00;;;;;;5051244;28;20463;-79
2021/07/27 12:28:03;;;;;;;3.70;3.23;;;34.60;1.00;;;;;;5047724;28;22999;-79
2021/07/27 12:30:30;;;;;;;4.20;3.80;;;34.10;1.00;;;;;;5061119;28;20448;-79
2021/07/27 12:32:57;;;;;;;4.40;3.77;;;33.30;1.00;;;;;;5052983;28;20527;-79
2021/07/27 12:35:23;;;;;;;5.00;3.80;;;32.80;1.00;;;;;;5052207;28;20419;-79
2021/07/27 12:37:50;;;;;;;4.13;3.63;;;32.50;1.00;;;;;;5052837;28;20451;-79
2021/07/27 12:40:17;;;;;;;4.00;3.60;;;32.40;1.00;;;;;;5050054;28;20526;-79
2021/07/27 12:42:43;;;;;;;3.67;3.20;;;32.00;1.00;;;;;;5051419;28;20466;-77
2021/07/27 12:45:14;;;;;;;5.37;3.70;;;31.30;1.00;;;;;;5049162;28;21232;-78
2021/07/27 12:47:42;;;;;;;5.60;3.93;;;31.10;1.00;;;;;;5052134;28;20460;-78
2021/07/27 12:50:09;;;;;;;4.53;3.43;;;30.90;1.00;;;;;;5052504;28;20544;-78
2021/07/27 12:52:36;;;;;;;4.53;3.80;;;30.60;1.00;;;;;;5050120;28;20472;-79
2021/07/27 12:55:04;;;;;;;4.60;3.27;;;30.60;1.00;;;;;;5056720;28;20454;-79
2021/07/27 12:57:31;;;;;;;4.17;3.37;;;31.40;1.00;;;;;;5053878;28;20455;-79
2021/07/27 13:00:01;;;;;;;7.10;3.80;;;32.40;1.00;;;;;;5051150;28;20458;-79
2021/07/27 13:02:29;;;;;;;3.60;3.30;;;33.10;1.00;;;;;;5053989;28;20548;-79
2021/07/27 13:04:55;;;;;;;4.07;3.67;;;33.50;1.00;;;;;;5050922;28;20458;-79
2021/07/27 13:07:22;;;;;;;3.40;2.90;;;33.70;1.00;;;;;;5056825;28;20439;-79
2021/07/27 13:09:49;;;;;;;3.37;3.07;;;34.50;1.00;;;;;;5048365;28;20499;-79
2021/07/27 13:12:15;;;;;;;3.97;3.63;;;35.60;1.00;;;;;;5050990;28;20502;-79
2021/07/27 13:14:42;;;;;;;5.93;5.10;;;36.50;1.00;;;;;;5047062;28;20452;-79